Etusivu
METAR-TAF:

METAR-TAF

Lentoasemat :

Växjö, Ruotsi

Leveyspiiri: 56-51N, Pituuspiiri: 014-50E, korkeus merenpinnasta: 199 m

Tämänhetkinen sää

Tämä raportti tehtiin 24 minuuttia sitten, kello 15.20 UTC
Tuuli 9 kn lounaasta, vaihdellen etelän ja lännen välillä
Lämpötila 24°C
Kosteus 50%
Ilmanpaine 1013 hPa
Näkyvyys 10 km tai enemmän
Hajonneita pilviä 4400 ft:n korkeudessa

METAR: ESMX 231520Z 23009KT 190V260 9999 BKN044 24/13 Q1013

Aika: 17:44 (15:44 UTC)

Sääennuste

Tämä raportti tehtiin 1 tunti ja 14 minuuttia sitten, kello 14.30 UTC
Ennuste voimassa 23. päivästä klo 15 UTC - 23. päivään klo 18 UTC
Tuuli 8 kn lännestä
Näkyvyys 10 km tai enemmän
Hajanaisia pilviä 4000 ft:n korkeudessa

TAF: ESMX 231430Z 2315/2318 26008KT 9999 SCT040

Säähavainnot ja -ennusteet yli 4000 lentoasemalta (METAR- ja TAF-raportit).

Käytössä olevat sääasemat on merkitty karttaan keltaisilla ja punaisilla pisteillä.

Aseta hiiri pisteen päälle nähdäksesi sääaseman nimen.

Klikkaa sitten nähdäksesi säähavainnot ja -ennusteet.

Kartan vaihtaminen: klikkaa mustalla rastilla varustettuja vihreitä pisteitä, niin voit zoomata sisään; viivalla varustettua vihreää pistettä, niin voit zoomata ulos tai vihreitä nuolia, niin pääset viereisille kartoille.


METAR-TAF: